Garysburg, North Carolina
Current Conditions -  °F | °C
As of 4:35 PM on Thursday 23 Oct 2014 (Local Time) from KIXA Reporting Station
Clear Clear  
Wind Chill: 66°   Ceiling: Unl
Heat Index: 66°   Visibility: 10mi
Dew Point: 46°   Wind: 9mph
Humidity: 49%   Direction: 290°WNW
Pressure: 29.88"   Gusts: NA
Location:  36.45°N, 77.56°W
Report Text: KIXA 232035Z AUTO 29008KT 10SM CLR 19/08 A2988 RMK AO2
Loading
Personal Weather Stations






























Interactive Weather Map
Tropical Storm Tracking
New forecast layout! Learn more

10-Day Weather Forecast

Advertisements
Track Severe Weather on mobile